createdAt,value
2022-11-24T00:01:12.718Z,6.35
2022-11-24T00:03:39.551Z,6.33
2022-11-24T00:06:08.554Z,6.45
2022-11-24T00:08:35.862Z,9.05
2022-11-24T00:11:04.783Z,6.88
2022-11-24T00:13:32.188Z,8.93
2022-11-24T00:16:26.368Z,8.70
2022-11-24T00:18:55.645Z,11.55
2022-11-24T00:21:23.957Z,10.70
2022-11-24T00:23:51.504Z,7.22
2022-11-24T00:26:19.736Z,10.32
2022-11-24T00:28:48.365Z,14.18
2022-11-24T00:31:21.926Z,11.07
2022-11-24T00:33:50.476Z,9.18
2022-11-24T00:36:18.929Z,7.13
2022-11-24T00:39:17.493Z,9.43
2022-11-24T00:41:44.311Z,13.32
2022-11-24T00:44:11.318Z,7.00
2022-11-24T00:46:38.306Z,4.93
2022-11-24T00:49:05.576Z,8.65
2022-11-24T00:51:32.518Z,8.57
2022-11-24T00:54:01.101Z,5.75
2022-11-24T00:56:29.733Z,5.78
2022-11-24T00:58:56.632Z,5.20
2022-11-24T01:01:26.492Z,6.38
2022-11-24T01:03:55.317Z,6.65
2022-11-24T01:06:25.056Z,9.55
2022-11-24T01:08:52.692Z,5.63
2022-11-24T01:11:25.322Z,5.07
2022-11-24T01:16:28.112Z,6.38
2022-11-24T01:18:56.059Z,6.18
2022-11-24T01:21:23.552Z,5.47
2022-11-24T01:23:50.988Z,9.52
2022-11-24T01:26:20.485Z,4.82
2022-11-24T01:28:48.036Z,5.78
2022-11-24T01:31:15.811Z,6.88
2022-11-24T01:33:42.887Z,4.43
2022-11-24T01:36:09.946Z,7.10
2022-11-24T01:38:36.779Z,5.80
2022-11-24T01:41:06.620Z,8.93
2022-11-24T01:43:34.166Z,7.32
2022-11-24T01:46:26.405Z,5.28
2022-11-24T01:49:02.897Z,4.70
2022-11-24T01:51:33.459Z,5.40
2022-11-24T01:54:09.150Z,7.95
2022-11-24T01:56:38.927Z,7.22
2022-11-24T01:59:09.457Z,8.95
2022-11-24T02:01:36.366Z,5.80
2022-11-24T02:04:06.609Z,5.13
2022-11-24T02:06:35.344Z,6.22
2022-11-24T02:09:23.208Z,9.05
2022-11-24T02:11:50.505Z,9.60
2022-11-24T02:14:18.822Z,3.15
2022-11-24T02:16:49.950Z,5.13
2022-11-24T02:19:40.102Z,9.40
2022-11-24T02:22:31.033Z,5.05
2022-11-24T02:25:23.376Z,5.68
2022-11-24T02:27:53.829Z,7.15
2022-11-24T02:30:21.718Z,5.20
2022-11-24T02:32:48.503Z,4.78
2022-11-24T02:35:15.560Z,12.45
2022-11-24T02:37:42.325Z,10.93
2022-11-24T02:40:09.774Z,8.15
2022-11-24T02:42:41.957Z,5.00
2022-11-24T02:45:09.768Z,7.18
2022-11-24T02:47:36.493Z,9.07
2022-11-24T02:50:03.760Z,5.80
2022-11-24T02:52:30.530Z,6.40
2022-11-24T02:54:57.340Z,6.47
2022-11-24T02:57:24.097Z,5.95
2022-11-24T02:59:50.969Z,9.68
2022-11-24T03:02:17.795Z,10.25
2022-11-24T03:04:44.747Z,11.32
2022-11-24T03:07:11.558Z,7.80
2022-11-24T03:09:38.375Z,6.60
2022-11-24T03:12:05.292Z,6.85
2022-11-24T03:14:32.403Z,10.07
2022-11-24T03:16:59.450Z,6.93
2022-11-24T03:19:26.253Z,6.45
2022-11-24T03:21:53.158Z,8.13
2022-11-24T03:24:19.982Z,5.75
2022-11-24T03:26:46.781Z,7.10
2022-11-24T03:29:13.555Z,7.03
2022-11-24T03:31:40.431Z,8.82
2022-11-24T03:34:07.360Z,6.72
2022-11-24T03:36:34.170Z,7.72
2022-11-24T03:39:01.047Z,5.13
2022-11-24T03:41:27.877Z,10.35
2022-11-24T03:43:54.648Z,7.88
2022-11-24T03:46:21.527Z,8.18
2022-11-24T03:48:48.555Z,6.80
2022-11-24T03:51:15.507Z,5.68
2022-11-24T03:53:42.307Z,6.82
2022-11-24T03:56:09.285Z,8.15
2022-11-24T03:58:36.315Z,8.05
2022-11-24T04:01:03.660Z,7.20
2022-11-24T04:03:30.527Z,6.25
2022-11-24T04:05:57.401Z,10.07
2022-11-24T04:08:24.223Z,7.68
2022-11-24T04:10:53.058Z,7.22
2022-11-24T04:13:21.662Z,9.10
2022-11-24T04:15:48.891Z,8.45
2022-11-24T04:18:15.750Z,7.55
2022-11-24T04:20:43.462Z,5.78
2022-11-24T04:23:10.982Z,8.27
2022-11-24T04:25:38.212Z,12.38
2022-11-24T04:28:05.074Z,9.05
2022-11-24T04:30:31.919Z,8.57
2022-11-24T04:32:58.946Z,5.45
2022-11-24T04:35:25.763Z,8.02
2022-11-24T04:37:52.895Z,5.70
2022-11-24T04:40:20.484Z,9.20
2022-11-24T04:42:55.200Z,10.65
2022-11-24T04:45:22.981Z,9.88
2022-11-24T04:47:49.772Z,9.93
2022-11-24T04:50:17.241Z,11.52
2022-11-24T04:52:44.132Z,8.60
2022-11-24T04:55:11.442Z,10.40
2022-11-24T04:57:38.673Z,6.60
2022-11-24T05:00:06.373Z,8.68
2022-11-24T05:02:33.137Z,7.43
2022-11-24T05:04:59.911Z,7.10
2022-11-24T05:07:26.783Z,7.30
2022-11-24T05:10:11.943Z,10.77
2022-11-24T05:12:39.542Z,8.55
2022-11-24T05:15:07.127Z,8.00
2022-11-24T05:17:36.804Z,12.73
2022-11-24T05:20:06.531Z,7.60
2022-11-24T05:22:33.403Z,9.57
2022-11-24T05:25:00.150Z,8.23
2022-11-24T05:27:27.224Z,9.50
2022-11-24T05:29:54.103Z,7.47
2022-11-24T05:32:20.926Z,8.30
2022-11-24T05:34:48.036Z,12.75
2022-11-24T05:37:15.122Z,5.50
2022-11-24T05:39:42.260Z,8.80
2022-11-24T05:42:28.092Z,6.72
2022-11-24T05:44:54.999Z,8.32
2022-11-24T05:47:22.276Z,7.82
2022-11-24T05:49:49.055Z,6.65
2022-11-24T05:52:16.735Z,6.63
2022-11-24T05:54:43.544Z,8.32
2022-11-24T05:57:10.353Z,6.97
2022-11-24T05:59:37.133Z,7.65
2022-11-24T06:02:04.019Z,6.32
2022-11-24T06:04:31.617Z,9.23
2022-11-24T06:06:58.564Z,8.65
2022-11-24T06:09:25.325Z,6.30
2022-11-24T06:11:52.229Z,12.45
2022-11-24T06:14:19.975Z,9.35
2022-11-24T06:16:47.254Z,10.75
2022-11-24T06:19:14.215Z,7.45
2022-11-24T06:21:40.965Z,13.57
2022-11-24T06:24:08.115Z,9.00
2022-11-24T06:26:34.868Z,11.25
2022-11-24T06:29:01.618Z,7.07
2022-11-24T06:31:28.478Z,4.57
2022-11-24T06:33:55.728Z,7.30
2022-11-24T06:36:22.531Z,9.95
2022-11-24T06:38:49.386Z,9.40
2022-11-24T06:41:16.959Z,12.73
2022-11-24T06:43:44.568Z,7.38
2022-11-24T06:46:12.236Z,11.50
2022-11-24T06:48:39.076Z,10.75
2022-11-24T06:51:08.091Z,9.93
2022-11-24T06:53:38.056Z,13.85
2022-11-24T06:56:12.183Z,13.90
2022-11-24T06:58:44.956Z,12.75
2022-11-24T07:01:26.943Z,10.05
2022-11-24T07:03:55.112Z,11.85
2022-11-24T07:06:23.662Z,10.55
2022-11-24T07:08:51.406Z,9.57
2022-11-24T07:11:20.982Z,12.85
2022-11-24T07:13:48.305Z,10.13
2022-11-24T07:16:19.280Z,13.55
2022-11-24T07:18:47.794Z,15.07
2022-11-24T07:21:14.810Z,12.63
2022-11-24T07:23:41.665Z,15.13
2022-11-24T07:26:09.733Z,12.73
2022-11-24T07:28:37.245Z,13.95
2022-11-24T07:31:12.405Z,15.02
2022-11-24T07:33:39.585Z,14.80
2022-11-24T07:36:07.980Z,10.05
2022-11-24T07:38:37.735Z,8.05
2022-11-24T07:41:07.213Z,13.25
2022-11-24T07:43:35.294Z,10.73
2022-11-24T07:46:03.221Z,10.88
2022-11-24T07:48:30.060Z,15.15
2022-11-24T07:51:00.598Z,9.25
2022-11-24T07:53:28.038Z,13.30
2022-11-24T07:56:02.068Z,13.85
2022-11-24T07:58:32.915Z,9.38
2022-11-24T08:01:00.452Z,10.55
2022-11-24T08:03:27.400Z,9.27
2022-11-24T08:06:22.228Z,12.77
2022-11-24T08:08:42.936Z,6.93
2022-11-24T08:11:13.942Z,16.45
2022-11-24T08:13:41.147Z,10.73
2022-11-24T08:16:10.306Z,11.50
2022-11-24T08:18:38.075Z,7.90
2022-11-24T08:21:05.620Z,10.90
2022-11-24T08:23:32.765Z,11.23
2022-11-24T08:26:05.132Z,15.32
2022-11-24T08:28:32.895Z,12.32
2022-11-24T08:31:04.852Z,17.65
2022-11-24T08:33:32.293Z,10.30
2022-11-24T08:36:11.144Z,12.43
2022-11-24T08:38:38.485Z,16.10
2022-11-24T08:41:09.769Z,14.73
2022-11-24T08:43:36.892Z,14.30
2022-11-24T08:46:09.632Z,14.38
2022-11-24T08:48:36.997Z,14.55
2022-11-24T08:51:09.309Z,14.55
2022-11-24T08:53:36.414Z,13.63
2022-11-24T08:56:04.272Z,17.98
2022-11-24T08:58:31.934Z,17.17
2022-11-24T09:01:15.639Z,16.65
2022-11-24T09:03:50.044Z,18.70
2022-11-24T09:06:23.576Z,14.32
2022-11-24T09:08:51.800Z,49.42
2022-11-24T09:11:18.833Z,23.05
2022-11-24T09:13:45.725Z,12.45
2022-11-24T09:16:21.371Z,14.18
2022-11-24T09:18:54.419Z,12.88
2022-11-24T09:21:21.818Z,10.40
2022-11-24T09:23:50.665Z,11.95
2022-11-24T09:26:20.608Z,9.80
2022-11-24T09:28:48.276Z,14.55
2022-11-24T09:31:17.298Z,15.75
2022-11-24T09:33:44.952Z,9.68
2022-11-24T09:36:12.337Z,9.35
2022-11-24T09:38:39.154Z,29.50
2022-11-24T09:41:14.914Z,14.18
2022-11-24T09:44:05.677Z,9.23
2022-11-24T09:46:40.596Z,15.00
2022-11-24T09:49:14.178Z,12.88
2022-11-24T09:51:44.557Z,16.67
2022-11-24T09:54:20.830Z,13.65
2022-11-24T09:56:49.171Z,11.50
2022-11-24T09:59:18.774Z,14.25
2022-11-24T10:01:54.919Z,13.70
2022-11-24T10:04:27.427Z,16.55
2022-11-24T10:09:44.596Z,14.60
2022-11-24T10:12:20.346Z,14.07
2022-11-24T10:14:50.063Z,15.70
2022-11-24T10:17:25.793Z,15.07
2022-11-24T10:20:19.784Z,11.82
2022-11-24T10:22:52.406Z,18.17
2022-11-24T10:25:36.373Z,18.75
2022-11-24T10:28:07.384Z,12.15
2022-11-24T10:30:34.316Z,15.52
2022-11-24T10:33:05.986Z,11.73
2022-11-24T10:35:40.534Z,10.00
2022-11-24T10:38:32.323Z,13.55
2022-11-24T10:41:07.179Z,21.73
2022-11-24T10:43:33.954Z,14.27
2022-11-24T10:46:22.943Z,20.98
2022-11-24T10:48:53.638Z,14.98
2022-11-24T10:51:32.342Z,10.65
2022-11-24T10:54:16.919Z,17.67
2022-11-24T10:56:45.597Z,15.00
2022-11-24T10:59:32.143Z,19.58
2022-11-24T11:01:59.881Z,16.58
2022-11-24T11:04:30.365Z,13.48
2022-11-24T11:07:23.733Z,14.20
2022-11-24T11:09:51.063Z,11.07
2022-11-24T11:12:43.468Z,18.92
2022-11-24T11:15:30.552Z,14.50
2022-11-24T11:18:01.460Z,15.77
2022-11-24T11:20:31.703Z,15.48
2022-11-24T11:23:03.296Z,13.93
2022-11-24T11:25:33.903Z,17.37
2022-11-24T11:28:19.459Z,12.15
2022-11-24T11:34:21.892Z,12.35
2022-11-24T11:36:54.745Z,11.38
2022-11-24T11:39:33.592Z,10.05
2022-11-24T11:43:00.267Z,13.73
2022-11-24T11:45:21.344Z,12.32
2022-11-24T11:47:57.331Z,11.70
2022-11-24T11:50:47.410Z,13.30
2022-11-24T11:53:46.470Z,11.65
2022-11-24T11:56:31.593Z,11.95
2022-11-24T11:59:01.117Z,12.60
2022-11-24T12:01:51.228Z,14.60
2022-11-24T12:04:29.926Z,8.32
2022-11-24T12:07:34.526Z,14.43
2022-11-24T12:10:28.651Z,14.95
2022-11-24T12:13:14.879Z,13.75
2022-11-24T12:15:50.802Z,19.77
2022-11-24T12:21:35.674Z,16.17
2022-11-24T12:24:15.907Z,13.52
2022-11-24T12:27:08.846Z,20.05
2022-11-24T12:32:23.539Z,15.60
2022-11-24T12:34:58.615Z,12.30
2022-11-24T12:37:54.145Z,17.80
2022-11-24T12:40:42.182Z,15.07
2022-11-24T12:43:19.070Z,12.57
2022-11-24T12:48:53.018Z,13.13
2022-11-24T12:51:22.823Z,16.08
2022-11-24T12:53:52.895Z,11.48
2022-11-24T12:56:29.205Z,16.67
2022-11-24T12:59:06.280Z,11.90
2022-11-24T13:01:39.910Z,12.25
2022-11-24T13:04:37.435Z,10.73
2022-11-24T13:07:18.077Z,10.40
2022-11-24T13:10:53.704Z,14.80
2022-11-24T13:13:15.267Z,11.52
2022-11-24T13:16:28.416Z,14.27
2022-11-24T13:18:55.877Z,7.30
2022-11-24T13:21:51.082Z,7.40
2022-11-24T13:24:19.047Z,11.70
2022-11-24T13:26:51.177Z,9.43
2022-11-24T13:29:36.885Z,11.05
2022-11-24T13:32:06.456Z,10.10
2022-11-24T13:34:39.491Z,11.27
2022-11-24T13:37:31.326Z,11.75
2022-11-24T13:40:11.403Z,9.43
2022-11-24T13:42:57.265Z,6.55
2022-11-24T13:45:39.373Z,12.45
2022-11-24T13:48:22.577Z,9.02
2022-11-24T13:50:58.538Z,8.70
2022-11-24T13:53:40.645Z,15.68
2022-11-24T13:56:13.036Z,7.50
2022-11-24T13:58:47.611Z,10.13
2022-11-24T14:01:26.200Z,9.75
2022-11-24T14:06:51.771Z,14.75
2022-11-24T14:09:42.485Z,7.78
2022-11-24T14:12:23.785Z,9.82
2022-11-24T14:14:57.176Z,7.40
2022-11-24T14:17:28.583Z,8.90
2022-11-24T14:19:57.437Z,9.20
2022-11-24T14:22:26.936Z,8.57
2022-11-24T14:24:59.266Z,8.38
2022-11-24T14:27:38.495Z,8.00
2022-11-24T14:30:18.812Z,11.30
2022-11-24T14:33:00.153Z,10.88
2022-11-24T14:35:32.465Z,9.85
2022-11-24T14:38:04.312Z,9.15
2022-11-24T14:40:50.464Z,8.30
2022-11-24T14:43:32.051Z,8.57
2022-11-24T14:46:12.282Z,10.30
2022-11-24T14:48:46.821Z,7.55
2022-11-24T14:51:23.799Z,10.40
2022-11-24T14:53:54.432Z,8.07
2022-11-24T14:56:29.888Z,10.00
2022-11-24T14:58:57.993Z,7.72
2022-11-24T15:01:27.938Z,10.32
2022-11-24T15:04:26.532Z,4.28
2022-11-24T15:07:20.803Z,9.95
2022-11-24T15:09:47.533Z,8.63
2022-11-24T15:12:38.969Z,10.48
2022-11-24T15:15:15.152Z,5.57
2022-11-24T15:17:52.318Z,5.85
2022-11-24T15:20:35.072Z,7.90
2022-11-24T15:23:23.076Z,8.82
2022-11-24T15:25:55.180Z,10.13
2022-11-24T15:28:26.137Z,9.32
2022-11-24T15:30:54.758Z,7.10
2022-11-24T15:33:23.423Z,9.77
2022-11-24T15:35:50.419Z,6.85
2022-11-24T15:38:17.569Z,7.38
2022-11-24T15:40:47.384Z,6.60
2022-11-24T15:43:30.655Z,6.07
2022-11-24T15:45:58.386Z,7.05
2022-11-24T15:48:25.609Z,8.82
2022-11-24T15:50:52.931Z,8.30
2022-11-24T15:53:28.064Z,8.38
2022-11-24T15:55:57.043Z,8.05
2022-11-24T15:58:23.806Z,7.28
2022-11-24T16:00:53.818Z,7.47
2022-11-24T16:06:19.094Z,5.47
2022-11-24T16:08:50.328Z,6.28
2022-11-24T16:11:17.100Z,7.55
2022-11-24T16:13:50.100Z,8.02
2022-11-24T16:16:19.615Z,8.02
2022-11-24T16:18:46.432Z,9.38
2022-11-24T16:21:13.288Z,7.40
2022-11-24T16:23:40.050Z,6.05
2022-11-24T16:26:07.152Z,6.53
2022-11-24T16:28:34.003Z,6.72
2022-11-24T16:31:01.090Z,12.13
2022-11-24T16:33:29.769Z,16.63
2022-11-24T16:35:56.713Z,13.73
2022-11-24T16:38:23.543Z,12.68
2022-11-24T16:40:56.093Z,16.60
2022-11-24T16:43:29.572Z,10.98
2022-11-24T16:46:21.034Z,7.78
2022-11-24T16:48:50.326Z,8.55
2022-11-24T16:51:19.046Z,9.30
2022-11-24T16:53:45.970Z,7.28
2022-11-24T16:56:14.752Z,10.82
2022-11-24T16:58:41.858Z,10.30
2022-11-24T17:01:13.702Z,9.30
2022-11-24T17:03:40.802Z,10.82
2022-11-24T17:06:09.963Z,9.13
2022-11-24T17:08:38.302Z,12.30
2022-11-24T17:11:12.268Z,6.10
2022-11-24T17:13:40.556Z,5.72
2022-11-24T17:16:12.501Z,7.90
2022-11-24T17:18:40.038Z,13.63
2022-11-24T17:21:10.172Z,12.05
2022-11-24T17:23:37.041Z,8.93
2022-11-24T17:26:06.414Z,7.40
2022-11-24T17:28:33.681Z,10.60
2022-11-24T17:31:09.226Z,9.60
2022-11-24T17:33:36.521Z,7.38
2022-11-24T17:36:06.934Z,8.20
2022-11-24T17:38:35.105Z,6.07
2022-11-24T17:41:01.848Z,12.43
2022-11-24T17:43:28.989Z,9.30
2022-11-24T17:45:59.092Z,8.65
2022-11-24T17:48:25.869Z,8.23
2022-11-24T17:51:07.902Z,10.10
2022-11-24T17:53:39.451Z,10.70
2022-11-24T17:56:25.690Z,12.93
2022-11-24T17:58:58.148Z,8.50
2022-11-24T18:03:54.114Z,9.95
2022-11-24T18:06:24.083Z,8.13
2022-11-24T18:08:55.458Z,7.82
2022-11-24T18:11:53.390Z,7.88
2022-11-24T18:14:47.925Z,15.60
2022-11-24T18:17:18.083Z,9.15
2022-11-24T18:19:47.344Z,11.23
2022-11-24T18:23:04.505Z,11.32
2022-11-24T18:25:58.669Z,9.93
2022-11-24T18:28:39.932Z,8.65
2022-11-24T18:31:35.652Z,9.02
2022-11-24T18:34:05.007Z,10.95
2022-11-24T18:36:32.220Z,9.18
2022-11-24T18:39:03.415Z,14.07
2022-11-24T18:41:30.169Z,11.50
2022-11-24T18:43:56.968Z,10.88
2022-11-24T18:46:23.878Z,8.45
2022-11-24T18:48:52.966Z,6.85
2022-11-24T18:51:19.784Z,11.80
2022-11-24T18:53:46.915Z,9.10
2022-11-24T18:56:16.471Z,5.05
2022-11-24T19:02:24.667Z,10.52
2022-11-24T19:04:51.504Z,9.95
2022-11-24T19:07:18.640Z,11.15
2022-11-24T19:09:46.397Z,13.70
2022-11-24T19:12:13.515Z,13.68
2022-11-24T19:14:40.272Z,10.43
2022-11-24T19:17:07.177Z,10.82
2022-11-24T19:19:34.526Z,10.30
2022-11-24T19:22:02.099Z,9.43
2022-11-24T19:24:30.019Z,13.15
2022-11-24T19:26:57.326Z,10.32
2022-11-24T19:29:24.176Z,12.43
2022-11-24T19:31:51.066Z,12.38
2022-11-24T19:34:17.942Z,13.95
2022-11-24T19:36:44.823Z,9.93
2022-11-24T19:39:15.988Z,10.13
2022-11-24T19:41:42.959Z,13.43
2022-11-24T19:44:11.637Z,12.75
2022-11-24T19:46:39.928Z,11.90
2022-11-24T19:49:08.902Z,10.85
2022-11-24T19:51:38.464Z,10.05
2022-11-24T19:54:07.459Z,13.38
2022-11-24T19:56:36.256Z,13.00
2022-11-24T19:59:05.356Z,11.95
2022-11-24T20:01:35.011Z,10.57
2022-11-24T20:04:06.829Z,14.30
2022-11-24T20:06:39.390Z,14.10
2022-11-24T20:11:34.850Z,13.48
2022-11-24T20:14:02.084Z,11.57
2022-11-24T20:16:31.405Z,13.57
2022-11-24T20:19:05.794Z,12.60
2022-11-24T20:21:33.923Z,14.30
2022-11-24T20:24:03.195Z,11.60
2022-11-24T20:26:33.171Z,14.30
2022-11-24T20:29:00.795Z,15.13
2022-11-24T20:31:37.373Z,16.58
2022-11-24T20:34:05.808Z,18.85
2022-11-24T20:36:35.088Z,13.80
2022-11-24T20:39:04.613Z,16.23
2022-11-24T20:41:34.814Z,16.55
2022-11-24T20:44:05.152Z,15.27
2022-11-24T20:46:34.114Z,16.88
2022-11-24T20:49:03.485Z,16.75
2022-11-24T20:51:32.813Z,16.55
2022-11-24T20:54:04.126Z,16.05
2022-11-24T20:56:33.451Z,15.75
2022-11-24T20:59:00.791Z,22.35
2022-11-24T21:01:35.895Z,18.20
2022-11-24T21:04:03.412Z,16.92
2022-11-24T21:06:30.781Z,18.27
2022-11-24T21:09:03.515Z,24.63
2022-11-24T21:11:31.556Z,21.92
2022-11-24T21:13:58.919Z,18.23
2022-11-24T21:16:28.873Z,26.55
2022-11-24T21:18:58.723Z,19.95
2022-11-24T21:21:33.380Z,20.13
2022-11-24T21:24:01.742Z,19.05
2022-11-24T21:26:28.973Z,20.52
2022-11-24T21:28:57.225Z,20.67
2022-11-24T21:31:25.802Z,21.02
2022-11-24T21:33:54.439Z,22.65
2022-11-24T21:36:25.996Z,21.73
2022-11-24T21:38:57.301Z,20.52
2022-11-24T21:41:28.251Z,22.05
2022-11-24T21:43:56.397Z,21.02
2022-11-24T21:46:24.093Z,22.42
2022-11-24T21:48:53.996Z,20.48
2022-11-24T21:51:21.220Z,21.55
2022-11-24T21:53:48.225Z,22.48
2022-11-24T21:56:17.611Z,23.75
2022-11-24T21:58:48.353Z,24.90
2022-11-24T22:01:18.012Z,21.95
2022-11-24T22:03:45.824Z,23.40
2022-11-24T22:06:20.850Z,20.38
2022-11-24T22:08:55.847Z,20.17
2022-11-24T22:11:27.038Z,22.08
2022-11-24T22:14:10.326Z,22.90
2022-11-24T22:17:01.249Z,20.17
2022-11-24T22:19:28.020Z,19.67
2022-11-24T22:22:04.038Z,26.25
2022-11-24T22:24:37.604Z,20.70
2022-11-24T22:27:13.477Z,17.70
2022-11-24T22:29:43.022Z,21.05
2022-11-24T22:32:09.822Z,23.92
2022-11-24T22:34:45.328Z,21.15
2022-11-24T22:37:37.389Z,20.42
2022-11-24T22:40:10.543Z,19.47
2022-11-24T22:42:43.197Z,19.48
2022-11-24T22:45:13.250Z,19.80
2022-11-24T22:47:42.849Z,20.75
2022-11-24T22:50:13.364Z,27.55
2022-11-24T22:52:46.443Z,21.88
2022-11-24T22:55:13.650Z,22.33
2022-11-24T22:57:50.552Z,25.65
2022-11-24T23:00:19.480Z,20.20
2022-11-24T23:02:46.340Z,19.42
2022-11-24T23:05:16.735Z,20.27
2022-11-24T23:07:46.459Z,19.30
2022-11-24T23:10:13.285Z,18.92
2022-11-24T23:12:40.054Z,20.33
2022-11-24T23:15:07.466Z,23.02
2022-11-24T23:17:34.256Z,24.52
2022-11-24T23:20:01.019Z,26.40
2022-11-24T23:22:27.876Z,23.58
2022-11-24T23:24:55.723Z,26.05
2022-11-24T23:27:22.575Z,28.98
2022-11-24T23:29:49.370Z,24.98
2022-11-24T23:32:18.544Z,26.77
2022-11-24T23:34:45.414Z,30.58
2022-11-24T23:37:12.193Z,23.48
2022-11-24T23:39:39.066Z,21.27
2022-11-24T23:42:06.126Z,21.38
2022-11-24T23:44:32.963Z,22.52
2022-11-24T23:46:59.815Z,29.77
2022-11-24T23:49:26.591Z,20.20
2022-11-24T23:51:53.756Z,21.98
2022-11-24T23:54:20.523Z,17.38
2022-11-24T23:56:50.042Z,19.80
2022-11-24T23:59:19.760Z,22.55
